sensor_id;sensor_type;location;lat;lon;timestamp;temperature;humidity
25753;DHT22;13600;50.816;4.416;2024-01-15T00:01:54;3.40;99.90
25753;DHT22;13600;50.816;4.416;2024-01-15T00:04:20;3.30;99.90
25753;DHT22;13600;50.816;4.416;2024-01-15T00:06:45;3.30;99.90
25753;DHT22;13600;50.816;4.416;2024-01-15T00:09:11;3.50;99.90
25753;DHT22;13600;50.816;4.416;2024-01-15T00:11:36;3.40;99.90
25753;DHT22;13600;50.816;4.416;2024-01-15T00:14:02;3.20;99.90
25753;DHT22;13600;50.816;4.416;2024-01-15T00:16:28;3.30;99.90
25753;DHT22;13600;50.816;4.416;2024-01-15T00:18:54;3.30;99.90
25753;DHT22;13600;50.816;4.416;2024-01-15T00:21:20;3.20;99.90
25753;DHT22;13600;50.816;4.416;2024-01-15T00:23:45;3.20;99.90
25753;DHT22;13600;50.816;4.416;2024-01-15T00:26:11;3.20;99.90
25753;DHT22;13600;50.816;4.416;2024-01-15T00:28:38;3.20;99.90
25753;DHT22;13600;50.816;4.416;2024-01-15T00:31:05;3.30;99.90
25753;DHT22;13600;50.816;4.416;2024-01-15T00:33:30;3.30;99.90
25753;DHT22;13600;50.816;4.416;2024-01-15T00:35:56;3.40;99.90
25753;DHT22;13600;50.816;4.416;2024-01-15T00:38:22;3.30;99.90
25753;DHT22;13600;50.816;4.416;2024-01-15T00:40:48;3.10;99.90
25753;DHT22;13600;50.816;4.416;2024-01-15T00:43:14;3.20;99.90
25753;DHT22;13600;50.816;4.416;2024-01-15T00:45:40;3.20;99.90
25753;DHT22;13600;50.816;4.416;2024-01-15T00:48:06;3.20;99.90
25753;DHT22;13600;50.816;4.416;2024-01-15T00:50:32;3.20;99.90
25753;DHT22;13600;50.816;4.416;2024-01-15T00:52:57;3.20;99.90
25753;DHT22;13600;50.816;4.416;2024-01-15T00:55:23;3.10;99.90
25753;DHT22;13600;50.816;4.416;2024-01-15T00:57:49;3.20;99.90
25753;DHT22;13600;50.816;4.416;2024-01-15T01:00:14;3.30;99.90
25753;DHT22;13600;50.816;4.416;2024-01-15T01:02:40;3.20;99.90
25753;DHT22;13600;50.816;4.416;2024-01-15T01:05:06;3.30;99.90
25753;DHT22;13600;50.816;4.416;2024-01-15T01:07:32;3.30;99.90
25753;DHT22;13600;50.816;4.416;2024-01-15T01:09:57;3.30;99.90
25753;DHT22;13600;50.816;4.416;2024-01-15T01:12:23;3.30;99.90
25753;DHT22;13600;50.816;4.416;2024-01-15T01:14:49;3.40;99.90
25753;DHT22;13600;50.816;4.416;2024-01-15T01:17:14;3.40;99.90
25753;DHT22;13600;50.816;4.416;2024-01-15T01:19:40;3.40;99.90
25753;DHT22;13600;50.816;4.416;2024-01-15T01:22:05;3.50;99.90
25753;DHT22;13600;50.816;4.416;2024-01-15T01:24:31;3.40;99.90
25753;DHT22;13600;50.816;4.416;2024-01-15T01:26:57;3.50;99.90
25753;DHT22;13600;50.816;4.416;2024-01-15T01:29:22;3.50;99.90
25753;DHT22;13600;50.816;4.416;2024-01-15T01:31:48;3.60;99.90
25753;DHT22;13600;50.816;4.416;2024-01-15T01:34:15;3.50;99.90
25753;DHT22;13600;50.816;4.416;2024-01-15T01:36:41;3.50;99.90
25753;DHT22;13600;50.816;4.416;2024-01-15T01:39:07;3.50;99.90
25753;DHT22;13600;50.816;4.416;2024-01-15T01:41:33;3.40;99.90
25753;DHT22;13600;50.816;4.416;2024-01-15T01:43:58;3.50;99.90
25753;DHT22;13600;50.816;4.416;2024-01-15T01:46:24;3.50;99.90
25753;DHT22;13600;50.816;4.416;2024-01-15T01:48:52;3.50;99.90
25753;DHT22;13600;50.816;4.416;2024-01-15T01:51:18;3.80;99.90
25753;DHT22;13600;50.816;4.416;2024-01-15T01:53:45;3.70;99.90
25753;DHT22;13600;50.816;4.416;2024-01-15T01:56:13;3.60;99.90
25753;DHT22;13600;50.816;4.416;2024-01-15T01:58:39;3.50;99.90
25753;DHT22;13600;50.816;4.416;2024-01-15T02:01:05;3.50;99.90
25753;DHT22;13600;50.816;4.416;2024-01-15T02:03:31;3.50;99.90
25753;DHT22;13600;50.816;4.416;2024-01-15T02:06:00;3.50;99.90
25753;DHT22;13600;50.816;4.416;2024-01-15T02:08:26;3.60;99.90
25753;DHT22;13600;50.816;4.416;2024-01-15T02:10:52;3.50;99.90
25753;DHT22;13600;50.816;4.416;2024-01-15T02:13:18;3.50;99.90
25753;DHT22;13600;50.816;4.416;2024-01-15T02:15:44;3.50;99.90
25753;DHT22;13600;50.816;4.416;2024-01-15T02:18:10;3.50;99.90
25753;DHT22;13600;50.816;4.416;2024-01-15T02:20:36;3.50;99.90
25753;DHT22;13600;50.816;4.416;2024-01-15T02:23:11;3.60;99.90
25753;DHT22;13600;50.816;4.416;2024-01-15T02:25:43;3.70;99.90
25753;DHT22;13600;50.816;4.416;2024-01-15T02:28:12;3.70;99.90
25753;DHT22;13600;50.816;4.416;2024-01-15T02:30:38;3.60;99.90
25753;DHT22;13600;50.816;4.416;2024-01-15T02:33:07;3.70;99.90
25753;DHT22;13600;50.816;4.416;2024-01-15T02:35:34;3.70;99.90
25753;DHT22;13600;50.816;4.416;2024-01-15T02:38:02;3.80;99.90
25753;DHT22;13600;50.816;4.416;2024-01-15T02:40:28;3.80;99.90
25753;DHT22;13600;50.816;4.416;2024-01-15T02:42:53;3.80;99.90
25753;DHT22;13600;50.816;4.416;2024-01-15T02:45:19;3.70;99.90
25753;DHT22;13600;50.816;4.416;2024-01-15T02:47:45;3.80;99.90
25753;DHT22;13600;50.816;4.416;2024-01-15T02:50:11;3.80;99.90
25753;DHT22;13600;50.816;4.416;2024-01-15T02:52:37;3.70;99.90
25753;DHT22;13600;50.816;4.416;2024-01-15T02:55:04;3.60;99.90
25753;DHT22;13600;50.816;4.416;2024-01-15T02:57:29;3.80;99.90
25753;DHT22;13600;50.816;4.416;2024-01-15T02:59:55;3.80;99.90
25753;DHT22;13600;50.816;4.416;2024-01-15T03:02:21;3.80;99.90
25753;DHT22;13600;50.816;4.416;2024-01-15T03:04:46;3.80;99.90
25753;DHT22;13600;50.816;4.416;2024-01-15T03:07:12;3.90;99.90
25753;DHT22;13600;50.816;4.416;2024-01-15T03:09:38;3.90;99.90
25753;DHT22;13600;50.816;4.416;2024-01-15T03:12:04;4.00;99.90
25753;DHT22;13600;50.816;4.416;2024-01-15T03:14:30;3.90;99.90
25753;DHT22;13600;50.816;4.416;2024-01-15T03:16:55;3.90;99.90
25753;DHT22;13600;50.816;4.416;2024-01-15T03:19:21;3.80;99.90
25753;DHT22;13600;50.816;4.416;2024-01-15T03:21:47;3.90;99.90
25753;DHT22;13600;50.816;4.416;2024-01-15T03:24:12;3.80;99.90
25753;DHT22;13600;50.816;4.416;2024-01-15T03:26:38;3.80;99.90
25753;DHT22;13600;50.816;4.416;2024-01-15T03:29:04;3.70;99.90
25753;DHT22;13600;50.816;4.416;2024-01-15T03:31:29;3.60;99.90
25753;DHT22;13600;50.816;4.416;2024-01-15T03:33:55;3.80;99.90
25753;DHT22;13600;50.816;4.416;2024-01-15T03:36:21;3.70;99.90
25753;DHT22;13600;50.816;4.416;2024-01-15T03:38:47;3.80;99.90
25753;DHT22;13600;50.816;4.416;2024-01-15T03:41:12;3.90;99.90
25753;DHT22;13600;50.816;4.416;2024-01-15T03:43:38;3.80;99.90
25753;DHT22;13600;50.816;4.416;2024-01-15T03:46:04;3.90;99.90
25753;DHT22;13600;50.816;4.416;2024-01-15T03:48:30;3.90;99.90
25753;DHT22;13600;50.816;4.416;2024-01-15T03:50:56;3.90;99.90
25753;DHT22;13600;50.816;4.416;2024-01-15T03:53:21;3.80;99.90
25753;DHT22;13600;50.816;4.416;2024-01-15T03:55:47;3.70;99.90
25753;DHT22;13600;50.816;4.416;2024-01-15T03:58:14;3.80;99.90
25753;DHT22;13600;50.816;4.416;2024-01-15T04:00:46;3.70;99.90
25753;DHT22;13600;50.816;4.416;2024-01-15T04:03:11;3.60;99.90
25753;DHT22;13600;50.816;4.416;2024-01-15T04:05:38;3.70;99.90
25753;DHT22;13600;50.816;4.416;2024-01-15T04:08:04;3.70;99.90
25753;DHT22;13600;50.816;4.416;2024-01-15T04:10:30;3.60;99.90
25753;DHT22;13600;50.816;4.416;2024-01-15T04:12:56;3.60;99.90
25753;DHT22;13600;50.816;4.416;2024-01-15T04:15:22;3.50;99.90
25753;DHT22;13600;50.816;4.416;2024-01-15T04:17:47;3.50;99.90
25753;DHT22;13600;50.816;4.416;2024-01-15T04:20:13;3.40;99.90
25753;DHT22;13600;50.816;4.416;2024-01-15T04:22:39;3.40;99.90
25753;DHT22;13600;50.816;4.416;2024-01-15T04:25:05;3.50;99.90
25753;DHT22;13600;50.816;4.416;2024-01-15T04:27:30;3.50;99.90
25753;DHT22;13600;50.816;4.416;2024-01-15T04:29:56;3.50;99.90
25753;DHT22;13600;50.816;4.416;2024-01-15T04:32:22;3.60;99.90
25753;DHT22;13600;50.816;4.416;2024-01-15T04:34:47;3.40;99.90
25753;DHT22;13600;50.816;4.416;2024-01-15T04:37:16;3.50;99.90
25753;DHT22;13600;50.816;4.416;2024-01-15T04:39:42;3.50;99.90
25753;DHT22;13600;50.816;4.416;2024-01-15T04:42:07;3.50;99.90
25753;DHT22;13600;50.816;4.416;2024-01-15T04:44:33;3.50;99.90
25753;DHT22;13600;50.816;4.416;2024-01-15T04:46:59;3.60;99.90
25753;DHT22;13600;50.816;4.416;2024-01-15T04:49:24;3.60;99.90
25753;DHT22;13600;50.816;4.416;2024-01-15T04:51:52;3.50;99.90
25753;DHT22;13600;50.816;4.416;2024-01-15T04:54:18;3.60;99.90
25753;DHT22;13600;50.816;4.416;2024-01-15T04:56:44;3.60;99.90
25753;DHT22;13600;50.816;4.416;2024-01-15T04:59:10;3.70;99.90
25753;DHT22;13600;50.816;4.416;2024-01-15T05:01:36;3.60;99.90
25753;DHT22;13600;50.816;4.416;2024-01-15T05:04:02;3.70;99.90
25753;DHT22;13600;50.816;4.416;2024-01-15T05:06:27;3.60;99.90
25753;DHT22;13600;50.816;4.416;2024-01-15T05:08:54;3.60;99.90
25753;DHT22;13600;50.816;4.416;2024-01-15T05:11:20;3.50;99.90
25753;DHT22;13600;50.816;4.416;2024-01-15T05:13:46;3.50;99.90
25753;DHT22;13600;50.816;4.416;2024-01-15T05:16:11;3.50;99.90
25753;DHT22;13600;50.816;4.416;2024-01-15T05:18:37;3.30;99.90
25753;DHT22;13600;50.816;4.416;2024-01-15T05:21:03;3.30;99.90
25753;DHT22;13600;50.816;4.416;2024-01-15T05:23:30;3.30;99.90
25753;DHT22;13600;50.816;4.416;2024-01-15T05:25:56;3.40;99.90
25753;DHT22;13600;50.816;4.416;2024-01-15T05:28:22;3.40;99.90
25753;DHT22;13600;50.816;4.416;2024-01-15T05:30:48;3.30;99.90
25753;DHT22;13600;50.816;4.416;2024-01-15T05:33:16;3.30;99.90
25753;DHT22;13600;50.816;4.416;2024-01-15T05:35:42;3.20;99.90
25753;DHT22;13600;50.816;4.416;2024-01-15T05:38:07;3.30;99.90
25753;DHT22;13600;50.816;4.416;2024-01-15T05:40:33;3.10;99.90
25753;DHT22;13600;50.816;4.416;2024-01-15T05:42:59;3.10;99.90
25753;DHT22;13600;50.816;4.416;2024-01-15T05:45:26;3.20;99.90
25753;DHT22;13600;50.816;4.416;2024-01-15T05:47:52;3.20;99.90
25753;DHT22;13600;50.816;4.416;2024-01-15T05:50:18;3.20;99.90
25753;DHT22;13600;50.816;4.416;2024-01-15T05:52:43;3.10;99.90
25753;DHT22;13600;50.816;4.416;2024-01-15T05:55:09;3.10;99.90
25753;DHT22;13600;50.816;4.416;2024-01-15T05:57:36;3.10;99.90
25753;DHT22;13600;50.816;4.416;2024-01-15T06:00:02;3.20;99.90
25753;DHT22;13600;50.816;4.416;2024-01-15T06:02:28;3.00;99.90
25753;DHT22;13600;50.816;4.416;2024-01-15T06:04:54;2.90;99.90
25753;DHT22;13600;50.816;4.416;2024-01-15T06:07:19;2.90;99.90
25753;DHT22;13600;50.816;4.416;2024-01-15T06:09:45;2.90;99.90
25753;DHT22;13600;50.816;4.416;2024-01-15T06:12:11;3.10;99.90
25753;DHT22;13600;50.816;4.416;2024-01-15T06:14:36;3.20;99.90
25753;DHT22;13600;50.816;4.416;2024-01-15T06:17:02;3.10;99.90
25753;DHT22;13600;50.816;4.416;2024-01-15T06:19:28;3.00;99.90
25753;DHT22;13600;50.816;4.416;2024-01-15T06:21:53;3.00;99.90
25753;DHT22;13600;50.816;4.416;2024-01-15T06:24:19;2.90;99.90
25753;DHT22;13600;50.816;4.416;2024-01-15T06:26:46;2.70;99.90
25753;DHT22;13600;50.816;4.416;2024-01-15T06:29:12;2.70;99.90
25753;DHT22;13600;50.816;4.416;2024-01-15T06:31:38;2.60;99.90
25753;DHT22;13600;50.816;4.416;2024-01-15T06:34:03;2.70;99.90
25753;DHT22;13600;50.816;4.416;2024-01-15T06:36:29;2.60;99.90
25753;DHT22;13600;50.816;4.416;2024-01-15T06:38:55;2.60;99.90
25753;DHT22;13600;50.816;4.416;2024-01-15T06:41:21;2.60;99.90
25753;DHT22;13600;50.816;4.416;2024-01-15T06:43:47;2.60;99.90
25753;DHT22;13600;50.816;4.416;2024-01-15T06:46:22;2.60;99.90
25753;DHT22;13600;50.816;4.416;2024-01-15T06:48:48;2.60;99.90
25753;DHT22;13600;50.816;4.416;2024-01-15T06:51:16;2.60;99.90
25753;DHT22;13600;50.816;4.416;2024-01-15T06:53:42;2.70;99.90
25753;DHT22;13600;50.816;4.416;2024-01-15T06:56:08;2.70;99.90
25753;DHT22;13600;50.816;4.416;2024-01-15T06:58:33;2.50;99.90
25753;DHT22;13600;50.816;4.416;2024-01-15T07:00:59;2.60;99.90
25753;DHT22;13600;50.816;4.416;2024-01-15T07:03:25;2.50;99.90
25753;DHT22;13600;50.816;4.416;2024-01-15T07:05:51;2.50;99.90
25753;DHT22;13600;50.816;4.416;2024-01-15T07:08:17;2.50;99.90
25753;DHT22;13600;50.816;4.416;2024-01-15T07:10:42;2.50;99.90
25753;DHT22;13600;50.816;4.416;2024-01-15T07:13:08;2.50;99.90
25753;DHT22;13600;50.816;4.416;2024-01-15T07:15:34;2.50;99.90
25753;DHT22;13600;50.816;4.416;2024-01-15T07:18:00;2.50;99.90
25753;DHT22;13600;50.816;4.416;2024-01-15T07:20:25;2.50;99.90
25753;DHT22;13600;50.816;4.416;2024-01-15T07:22:51;2.50;99.90
25753;DHT22;13600;50.816;4.416;2024-01-15T07:25:17;2.60;99.90
25753;DHT22;13600;50.816;4.416;2024-01-15T07:27:42;2.60;99.90
25753;DHT22;13600;50.816;4.416;2024-01-15T07:30:11;2.50;99.90
25753;DHT22;13600;50.816;4.416;2024-01-15T07:32:37;2.40;99.90
25753;DHT22;13600;50.816;4.416;2024-01-15T07:35:03;2.30;99.90
25753;DHT22;13600;50.816;4.416;2024-01-15T07:37:29;2.30;99.90
25753;DHT22;13600;50.816;4.416;2024-01-15T07:39:54;2.50;99.90
25753;DHT22;13600;50.816;4.416;2024-01-15T07:42:20;2.60;99.90
25753;DHT22;13600;50.816;4.416;2024-01-15T07:44:47;2.70;99.90
25753;DHT22;13600;50.816;4.416;2024-01-15T07:47:12;2.60;99.90
25753;DHT22;13600;50.816;4.416;2024-01-15T07:49:38;2.70;99.90
25753;DHT22;13600;50.816;4.416;2024-01-15T07:52:04;2.70;99.90
25753;DHT22;13600;50.816;4.416;2024-01-15T07:54:31;2.60;99.90
25753;DHT22;13600;50.816;4.416;2024-01-15T07:56:58;2.70;99.90
25753;DHT22;13600;50.816;4.416;2024-01-15T07:59:24;2.60;99.90
25753;DHT22;13600;50.816;4.416;2024-01-15T08:01:51;2.60;99.90
25753;DHT22;13600;50.816;4.416;2024-01-15T08:04:17;2.50;99.90
25753;DHT22;13600;50.816;4.416;2024-01-15T08:06:42;2.60;99.90
25753;DHT22;13600;50.816;4.416;2024-01-15T08:09:08;2.70;99.90
25753;DHT22;13600;50.816;4.416;2024-01-15T08:11:34;2.70;99.90
25753;DHT22;13600;50.816;4.416;2024-01-15T08:14:00;2.70;99.90
25753;DHT22;13600;50.816;4.416;2024-01-15T08:16:26;2.70;99.90
25753;DHT22;13600;50.816;4.416;2024-01-15T08:18:53;2.80;99.90
25753;DHT22;13600;50.816;4.416;2024-01-15T08:21:19;2.90;99.90
25753;DHT22;13600;50.816;4.416;2024-01-15T08:23:44;3.00;99.90
25753;DHT22;13600;50.816;4.416;2024-01-15T08:26:10;3.10;99.90
25753;DHT22;13600;50.816;4.416;2024-01-15T08:28:36;3.10;99.90
25753;DHT22;13600;50.816;4.416;2024-01-15T08:31:02;3.20;99.90
25753;DHT22;13600;50.816;4.416;2024-01-15T08:33:28;3.30;99.90
25753;DHT22;13600;50.816;4.416;2024-01-15T08:35:55;3.30;99.90
25753;DHT22;13600;50.816;4.416;2024-01-15T08:38:21;3.30;99.90
25753;DHT22;13600;50.816;4.416;2024-01-15T08:40:48;3.40;99.90
25753;DHT22;13600;50.816;4.416;2024-01-15T08:43:13;3.30;99.90
25753;DHT22;13600;50.816;4.416;2024-01-15T08:45:39;3.30;99.90
25753;DHT22;13600;50.816;4.416;2024-01-15T08:48:05;3.40;99.90
25753;DHT22;13600;50.816;4.416;2024-01-15T08:50:31;3.40;99.90
25753;DHT22;13600;50.816;4.416;2024-01-15T08:52:58;3.40;99.90
25753;DHT22;13600;50.816;4.416;2024-01-15T08:55:23;3.50;99.90
25753;DHT22;13600;50.816;4.416;2024-01-15T08:57:50;3.60;99.90
25753;DHT22;13600;50.816;4.416;2024-01-15T09:00:16;3.50;99.90
25753;DHT22;13600;50.816;4.416;2024-01-15T09:02:42;3.40;99.90
25753;DHT22;13600;50.816;4.416;2024-01-15T09:05:08;3.40;99.90
25753;DHT22;13600;50.816;4.416;2024-01-15T09:07:34;3.40;99.90
25753;DHT22;13600;50.816;4.416;2024-01-15T09:09:59;3.30;99.90
25753;DHT22;13600;50.816;4.416;2024-01-15T09:12:26;3.30;99.90
25753;DHT22;13600;50.816;4.416;2024-01-15T09:14:51;3.20;99.90
25753;DHT22;13600;50.816;4.416;2024-01-15T09:17:19;3.10;99.90
25753;DHT22;13600;50.816;4.416;2024-01-15T09:19:44;3.10;99.90
25753;DHT22;13600;50.816;4.416;2024-01-15T09:22:12;3.10;99.90
25753;DHT22;13600;50.816;4.416;2024-01-15T09:24:41;3.10;99.90
25753;DHT22;13600;50.816;4.416;2024-01-15T09:27:07;3.10;99.90
25753;DHT22;13600;50.816;4.416;2024-01-15T09:29:33;3.10;99.90
25753;DHT22;13600;50.816;4.416;2024-01-15T09:31:58;3.20;99.90
25753;DHT22;13600;50.816;4.416;2024-01-15T09:34:24;3.10;99.90
25753;DHT22;13600;50.816;4.416;2024-01-15T09:36:50;3.00;99.90
25753;DHT22;13600;50.816;4.416;2024-01-15T09:39:16;3.00;99.90
25753;DHT22;13600;50.816;4.416;2024-01-15T09:41:42;3.00;99.90
25753;DHT22;13600;50.816;4.416;2024-01-15T09:44:08;3.00;99.90
25753;DHT22;13600;50.816;4.416;2024-01-15T09:46:36;3.10;99.90
25753;DHT22;13600;50.816;4.416;2024-01-15T09:49:02;3.10;99.90
25753;DHT22;13600;50.816;4.416;2024-01-15T09:51:31;3.10;99.90
25753;DHT22;13600;50.816;4.416;2024-01-15T09:53:57;3.20;99.90
25753;DHT22;13600;50.816;4.416;2024-01-15T09:56:23;3.40;99.90
25753;DHT22;13600;50.816;4.416;2024-01-15T09:58:50;3.40;99.90
25753;DHT22;13600;50.816;4.416;2024-01-15T10:01:17;3.30;99.90
25753;DHT22;13600;50.816;4.416;2024-01-15T10:03:43;3.30;99.90
25753;DHT22;13600;50.816;4.416;2024-01-15T10:06:11;3.30;99.90
25753;DHT22;13600;50.816;4.416;2024-01-15T10:08:39;3.50;99.90
25753;DHT22;13600;50.816;4.416;2024-01-15T10:11:05;3.70;99.90
25753;DHT22;13600;50.816;4.416;2024-01-15T10:13:30;4.00;99.90
25753;DHT22;13600;50.816;4.416;2024-01-15T10:15:56;4.40;99.90
25753;DHT22;13600;50.816;4.416;2024-01-15T10:18:23;4.70;99.90
25753;DHT22;13600;50.816;4.416;2024-01-15T10:20:49;4.90;99.90
25753;DHT22;13600;50.816;4.416;2024-01-15T10:23:15;4.70;99.90
25753;DHT22;13600;50.816;4.416;2024-01-15T10:25:42;4.70;99.90
25753;DHT22;13600;50.816;4.416;2024-01-15T10:28:07;4.50;99.90
25753;DHT22;13600;50.816;4.416;2024-01-15T10:30:34;4.40;99.90
25753;DHT22;13600;50.816;4.416;2024-01-15T10:33:01;4.40;99.90
25753;DHT22;13600;50.816;4.416;2024-01-15T10:35:31;4.50;99.90
25753;DHT22;13600;50.816;4.416;2024-01-15T10:37:59;4.70;99.90
25753;DHT22;13600;50.816;4.416;2024-01-15T10:40:24;4.70;99.90
25753;DHT22;13600;50.816;4.416;2024-01-15T10:42:50;4.80;99.90
25753;DHT22;13600;50.816;4.416;2024-01-15T10:45:16;4.70;99.90
25753;DHT22;13600;50.816;4.416;2024-01-15T10:47:42;4.70;99.90
25753;DHT22;13600;50.816;4.416;2024-01-15T10:50:09;4.70;99.90
25753;DHT22;13600;50.816;4.416;2024-01-15T10:52:36;4.70;99.90
25753;DHT22;13600;50.816;4.416;2024-01-15T10:55:03;4.60;99.90
25753;DHT22;13600;50.816;4.416;2024-01-15T10:57:32;4.50;99.90
25753;DHT22;13600;50.816;4.416;2024-01-15T10:59:59;4.50;99.90
25753;DHT22;13600;50.816;4.416;2024-01-15T11:02:25;4.50;99.90
25753;DHT22;13600;50.816;4.416;2024-01-15T11:04:51;4.30;99.90
25753;DHT22;13600;50.816;4.416;2024-01-15T11:07:17;4.30;99.90
25753;DHT22;13600;50.816;4.416;2024-01-15T11:09:43;4.30;99.90
25753;DHT22;13600;50.816;4.416;2024-01-15T11:12:13;4.40;99.90
25753;DHT22;13600;50.816;4.416;2024-01-15T11:14:46;4.50;99.90
25753;DHT22;13600;50.816;4.416;2024-01-15T11:17:12;4.80;99.90
25753;DHT22;13600;50.816;4.416;2024-01-15T11:22:08;5.30;99.90
25753;DHT22;13600;50.816;4.416;2024-01-15T11:24:40;5.40;99.90
25753;DHT22;13600;50.816;4.416;2024-01-15T11:27:07;5.60;99.90
25753;DHT22;13600;50.816;4.416;2024-01-15T11:29:35;5.70;99.90
25753;DHT22;13600;50.816;4.416;2024-01-15T11:32:08;5.90;99.90
25753;DHT22;13600;50.816;4.416;2024-01-15T11:34:53;5.80;99.90
25753;DHT22;13600;50.816;4.416;2024-01-15T11:37:20;5.70;99.90
25753;DHT22;13600;50.816;4.416;2024-01-15T11:39:47;5.70;99.90
25753;DHT22;13600;50.816;4.416;2024-01-15T11:42:13;5.50;99.90
25753;DHT22;13600;50.816;4.416;2024-01-15T11:44:39;6.00;99.90
25753;DHT22;13600;50.816;4.416;2024-01-15T11:47:07;6.30;99.90
25753;DHT22;13600;50.816;4.416;2024-01-15T11:52:17;6.50;99.90
25753;DHT22;13600;50.816;4.416;2024-01-15T11:55:11;6.50;99.90
25753;DHT22;13600;50.816;4.416;2024-01-15T11:57:50;6.50;99.90
25753;DHT22;13600;50.816;4.416;2024-01-15T12:00:16;6.40;99.90
25753;DHT22;13600;50.816;4.416;2024-01-15T12:02:43;6.30;99.90
25753;DHT22;13600;50.816;4.416;2024-01-15T12:05:10;6.30;99.90
25753;DHT22;13600;50.816;4.416;2024-01-15T12:07:37;6.00;99.90
25753;DHT22;13600;50.816;4.416;2024-01-15T12:10:11;5.90;99.90
25753;DHT22;13600;50.816;4.416;2024-01-15T12:12:53;5.90;99.90
25753;DHT22;13600;50.816;4.416;2024-01-15T12:15:21;6.00;99.90
25753;DHT22;13600;50.816;4.416;2024-01-15T12:17:46;6.10;99.90
25753;DHT22;13600;50.816;4.416;2024-01-15T12:20:14;6.00;99.90
25753;DHT22;13600;50.816;4.416;2024-01-15T12:22:41;6.00;99.90
25753;DHT22;13600;50.816;4.416;2024-01-15T12:25:07;6.00;99.90
25753;DHT22;13600;50.816;4.416;2024-01-15T12:27:34;5.90;99.90
25753;DHT22;13600;50.816;4.416;2024-01-15T12:29:59;6.00;99.90
25753;DHT22;13600;50.816;4.416;2024-01-15T12:32:25;5.90;99.90
25753;DHT22;13600;50.816;4.416;2024-01-15T12:34:51;6.00;99.90
25753;DHT22;13600;50.816;4.416;2024-01-15T12:37:20;6.00;99.90
25753;DHT22;13600;50.816;4.416;2024-01-15T12:39:46;6.20;99.90
25753;DHT22;13600;50.816;4.416;2024-01-15T12:42:14;6.00;99.90
25753;DHT22;13600;50.816;4.416;2024-01-15T12:44:39;6.10;99.90
25753;DHT22;13600;50.816;4.416;2024-01-15T12:47:06;6.20;99.90
25753;DHT22;13600;50.816;4.416;2024-01-15T12:49:36;6.00;99.90
25753;DHT22;13600;50.816;4.416;2024-01-15T12:52:02;5.90;99.90
25753;DHT22;13600;50.816;4.416;2024-01-15T12:54:28;5.70;99.90
25753;DHT22;13600;50.816;4.416;2024-01-15T12:56:54;5.60;99.90
25753;DHT22;13600;50.816;4.416;2024-01-15T12:59:19;5.50;99.90
25753;DHT22;13600;50.816;4.416;2024-01-15T13:01:46;5.50;99.90
25753;DHT22;13600;50.816;4.416;2024-01-15T13:04:23;5.20;99.90
25753;DHT22;13600;50.816;4.416;2024-01-15T13:06:50;5.20;99.90
25753;DHT22;13600;50.816;4.416;2024-01-15T13:09:16;5.30;99.90
25753;DHT22;13600;50.816;4.416;2024-01-15T13:11:43;5.10;99.90
25753;DHT22;13600;50.816;4.416;2024-01-15T13:14:09;4.90;99.90
25753;DHT22;13600;50.816;4.416;2024-01-15T13:16:34;4.90;99.90
25753;DHT22;13600;50.816;4.416;2024-01-15T13:19:00;4.90;99.90
25753;DHT22;13600;50.816;4.416;2024-01-15T13:21:25;4.80;99.90
25753;DHT22;13600;50.816;4.416;2024-01-15T13:23:52;4.80;99.90
25753;DHT22;13600;50.816;4.416;2024-01-15T13:26:18;4.80;99.90
25753;DHT22;13600;50.816;4.416;2024-01-15T13:28:44;5.10;99.90
25753;DHT22;13600;50.816;4.416;2024-01-15T13:31:10;5.40;99.90
25753;DHT22;13600;50.816;4.416;2024-01-15T13:33:36;5.60;99.90
25753;DHT22;13600;50.816;4.416;2024-01-15T13:36:01;5.60;99.90
25753;DHT22;13600;50.816;4.416;2024-01-15T13:38:28;5.50;99.90
25753;DHT22;13600;50.816;4.416;2024-01-15T13:40:56;5.50;99.90
25753;DHT22;13600;50.816;4.416;2024-01-15T13:43:22;5.60;99.90
25753;DHT22;13600;50.816;4.416;2024-01-15T13:45:49;5.50;99.90
25753;DHT22;13600;50.816;4.416;2024-01-15T13:48:15;5.40;99.90
25753;DHT22;13600;50.816;4.416;2024-01-15T13:50:41;5.30;99.90
25753;DHT22;13600;50.816;4.416;2024-01-15T13:53:08;5.30;99.90
25753;DHT22;13600;50.816;4.416;2024-01-15T13:55:36;5.20;99.90
25753;DHT22;13600;50.816;4.416;2024-01-15T13:58:01;5.20;99.90
25753;DHT22;13600;50.816;4.416;2024-01-15T14:00:29;5.30;99.90
25753;DHT22;13600;50.816;4.416;2024-01-15T14:02:54;5.50;99.90
25753;DHT22;13600;50.816;4.416;2024-01-15T14:05:20;5.50;99.90
25753;DHT22;13600;50.816;4.416;2024-01-15T14:07:46;5.40;99.90
25753;DHT22;13600;50.816;4.416;2024-01-15T14:10:12;5.00;99.90
25753;DHT22;13600;50.816;4.416;2024-01-15T14:12:38;4.70;99.90
25753;DHT22;13600;50.816;4.416;2024-01-15T14:15:05;4.70;99.90
25753;DHT22;13600;50.816;4.416;2024-01-15T14:17:31;4.50;99.90
25753;DHT22;13600;50.816;4.416;2024-01-15T14:19:57;4.50;99.90
25753;DHT22;13600;50.816;4.416;2024-01-15T14:22:23;4.50;99.90
25753;DHT22;13600;50.816;4.416;2024-01-15T14:24:49;4.50;99.90
25753;DHT22;13600;50.816;4.416;2024-01-15T14:27:15;4.60;99.90
25753;DHT22;13600;50.816;4.416;2024-01-15T14:29:40;4.80;99.90
25753;DHT22;13600;50.816;4.416;2024-01-15T14:32:07;4.90;99.90
25753;DHT22;13600;50.816;4.416;2024-01-15T14:34:33;4.90;99.90
25753;DHT22;13600;50.816;4.416;2024-01-15T14:37:01;4.80;99.90
25753;DHT22;13600;50.816;4.416;2024-01-15T14:39:27;4.90;99.90
25753;DHT22;13600;50.816;4.416;2024-01-15T14:41:53;4.90;99.90
25753;DHT22;13600;50.816;4.416;2024-01-15T14:44:18;4.60;99.90
25753;DHT22;13600;50.816;4.416;2024-01-15T14:46:44;4.20;99.90
25753;DHT22;13600;50.816;4.416;2024-01-15T14:49:12;4.00;99.90
25753;DHT22;13600;50.816;4.416;2024-01-15T14:51:37;4.00;99.90
25753;DHT22;13600;50.816;4.416;2024-01-15T14:54:03;3.90;99.90
25753;DHT22;13600;50.816;4.416;2024-01-15T14:56:29;4.00;99.90
25753;DHT22;13600;50.816;4.416;2024-01-15T14:58:54;4.10;99.90
25753;DHT22;13600;50.816;4.416;2024-01-15T15:01:20;4.20;99.90
25753;DHT22;13600;50.816;4.416;2024-01-15T15:03:48;4.10;99.90
25753;DHT22;13600;50.816;4.416;2024-01-15T15:06:14;4.00;99.90
25753;DHT22;13600;50.816;4.416;2024-01-15T15:08:39;3.90;99.90
25753;DHT22;13600;50.816;4.416;2024-01-15T15:11:06;3.70;99.90
25753;DHT22;13600;50.816;4.416;2024-01-15T15:13:33;3.60;99.90
25753;DHT22;13600;50.816;4.416;2024-01-15T15:15:58;3.50;99.90
25753;DHT22;13600;50.816;4.416;2024-01-15T15:18:24;3.30;99.90
25753;DHT22;13600;50.816;4.416;2024-01-15T15:20:50;3.30;99.90
25753;DHT22;13600;50.816;4.416;2024-01-15T15:23:17;3.20;99.90
25753;DHT22;13600;50.816;4.416;2024-01-15T15:25:43;3.20;99.90
25753;DHT22;13600;50.816;4.416;2024-01-15T15:28:09;3.30;99.90
25753;DHT22;13600;50.816;4.416;2024-01-15T15:30:37;3.20;99.90
25753;DHT22;13600;50.816;4.416;2024-01-15T15:33:02;3.20;99.90
25753;DHT22;13600;50.816;4.416;2024-01-15T15:35:28;3.20;99.90
25753;DHT22;13600;50.816;4.416;2024-01-15T15:37:54;3.20;99.90
25753;DHT22;13600;50.816;4.416;2024-01-15T15:40:20;3.30;99.90
25753;DHT22;13600;50.816;4.416;2024-01-15T15:42:46;3.40;99.90
25753;DHT22;13600;50.816;4.416;2024-01-15T15:45:12;3.40;99.90